createdAt,value
2022-12-01T00:01:14.510Z,102432.00
2022-12-01T00:03:41.289Z,102427.00
2022-12-01T00:06:12.788Z,102424.00
2022-12-01T00:08:39.542Z,102425.00
2022-12-01T00:11:08.651Z,102411.00
2022-12-01T00:13:36.962Z,102414.00
2022-12-01T00:16:15.719Z,102419.00
2022-12-01T00:18:43.036Z,102416.00
2022-12-01T00:21:20.495Z,102418.00
2022-12-01T00:23:49.364Z,102415.00
2022-12-01T00:26:17.521Z,102409.00
2022-12-01T00:28:44.255Z,102406.00
2022-12-01T00:31:12.353Z,102406.00
2022-12-01T00:33:39.670Z,102405.00
2022-12-01T00:36:07.075Z,102405.00
2022-12-01T00:38:34.182Z,102403.00
2022-12-01T00:41:01.116Z,102407.00
2022-12-01T00:43:27.875Z,102409.00
2022-12-01T00:45:56.297Z,102403.00
2022-12-01T00:48:23.587Z,102421.00
2022-12-01T00:50:51.734Z,102401.00
2022-12-01T00:53:18.616Z,102414.00
2022-12-01T00:55:45.693Z,102419.00
2022-12-01T00:58:12.497Z,102414.00
2022-12-01T01:00:39.235Z,102405.00
2022-12-01T01:03:06.928Z,102425.00
2022-12-01T01:05:37.888Z,102417.00
2022-12-01T01:08:11.976Z,102427.00
2022-12-01T01:10:42.717Z,102420.00
2022-12-01T01:13:09.521Z,102423.00
2022-12-01T01:15:36.400Z,102424.00
2022-12-01T01:18:03.803Z,102429.00
2022-12-01T01:20:30.995Z,102421.00
2022-12-01T01:22:57.794Z,102427.00
2022-12-01T01:25:24.710Z,102419.00
2022-12-01T01:27:51.588Z,102424.00
2022-12-01T01:30:18.568Z,102424.00
2022-12-01T01:32:45.316Z,102421.00
2022-12-01T01:35:12.176Z,102421.00
2022-12-01T01:37:38.933Z,102422.00
2022-12-01T01:40:06.665Z,102425.00
2022-12-01T01:42:33.399Z,102427.00
2022-12-01T01:45:00.329Z,102428.00
2022-12-01T01:47:39.686Z,102420.00
2022-12-01T01:50:14.782Z,102436.00
2022-12-01T01:53:01.227Z,102420.00
2022-12-01T01:55:30.004Z,102429.00
2022-12-01T01:57:56.942Z,102430.00
2022-12-01T02:00:24.079Z,102431.00
2022-12-01T02:02:51.356Z,102432.00
2022-12-01T02:05:24.481Z,102428.00
2022-12-01T02:07:53.409Z,102421.00
2022-12-01T02:10:23.576Z,102427.00
2022-12-01T02:13:20.495Z,102429.00
2022-12-01T02:16:08.546Z,102428.00
2022-12-01T02:18:41.984Z,102422.00
2022-12-01T02:21:20.317Z,102429.00
2022-12-01T02:24:08.271Z,102428.00
2022-12-01T02:26:53.014Z,102417.00
2022-12-01T02:29:38.343Z,102420.00
2022-12-01T02:32:19.265Z,102414.00
2022-12-01T02:35:19.831Z,102422.00
2022-12-01T02:38:08.565Z,102419.00
2022-12-01T02:40:46.759Z,102409.00
2022-12-01T02:43:38.939Z,102428.00
2022-12-01T02:46:13.841Z,102428.00
2022-12-01T02:48:44.239Z,102429.00
2022-12-01T02:51:38.711Z,102425.00
2022-12-01T02:54:05.991Z,102416.00
2022-12-01T02:56:32.720Z,102423.00
2022-12-01T02:58:59.435Z,102432.00
2022-12-01T03:01:41.292Z,102424.00
2022-12-01T03:04:50.059Z,102422.00
2022-12-01T03:07:46.080Z,102429.00
2022-12-01T03:10:34.824Z,102424.00
2022-12-01T03:13:21.881Z,102423.00
2022-12-01T03:16:06.872Z,102425.00
2022-12-01T03:18:46.888Z,102426.00
2022-12-01T03:21:32.875Z,102416.00
2022-12-01T03:24:07.499Z,102433.00
2022-12-01T03:26:35.566Z,102429.00
2022-12-01T03:29:09.823Z,102420.00
2022-12-01T03:31:42.539Z,102422.00
2022-12-01T03:34:17.997Z,102424.00
2022-12-01T03:36:52.590Z,102430.00
2022-12-01T03:39:22.755Z,102414.00
2022-12-01T03:42:00.555Z,102417.00
2022-12-01T03:44:32.988Z,102420.00
2022-12-01T03:47:04.380Z,102432.00
2022-12-01T03:49:31.635Z,102439.00
2022-12-01T03:52:22.568Z,102410.00
2022-12-01T03:55:12.786Z,102409.00
2022-12-01T03:57:45.145Z,102390.00
2022-12-01T04:00:13.886Z,102391.00
2022-12-01T04:02:41.249Z,102397.00
2022-12-01T04:05:11.315Z,102381.00
2022-12-01T04:07:38.966Z,102389.00
2022-12-01T04:10:06.486Z,102377.00
2022-12-01T04:12:33.490Z,102372.00
2022-12-01T04:15:02.575Z,102376.00
2022-12-01T04:17:29.671Z,102374.00
2022-12-01T04:19:56.556Z,102375.00
2022-12-01T04:22:23.856Z,102377.00
2022-12-01T04:24:50.705Z,102388.00
2022-12-01T04:27:17.501Z,102389.00
2022-12-01T04:29:44.350Z,102401.00
2022-12-01T04:32:11.161Z,102397.00
2022-12-01T04:34:40.235Z,102398.00
2022-12-01T04:37:07.751Z,102406.00
2022-12-01T04:39:34.665Z,102408.00
2022-12-01T04:42:01.532Z,102410.00
2022-12-01T04:44:34.267Z,102405.00
2022-12-01T04:47:02.416Z,102413.00
2022-12-01T04:49:29.429Z,102415.00
2022-12-01T04:51:56.260Z,102411.00
2022-12-01T04:54:23.021Z,102406.00
2022-12-01T04:56:49.864Z,102407.00
2022-12-01T04:59:16.803Z,102409.00
2022-12-01T05:01:44.644Z,102406.00
2022-12-01T05:04:13.227Z,102420.00
2022-12-01T05:06:40.295Z,102417.00
2022-12-01T05:09:07.533Z,102408.00
2022-12-01T05:11:34.751Z,102420.00
2022-12-01T05:14:01.564Z,102422.00
2022-12-01T05:16:32.280Z,102427.00
2022-12-01T05:19:22.661Z,102431.00
2022-12-01T05:21:50.438Z,102422.00
2022-12-01T05:24:18.177Z,102433.00
2022-12-01T05:26:45.215Z,102427.00
2022-12-01T05:29:12.404Z,102435.00
2022-12-01T05:31:39.888Z,102437.00
2022-12-01T05:34:07.382Z,102441.00
2022-12-01T05:36:34.151Z,102441.00
2022-12-01T05:39:00.929Z,102438.00
2022-12-01T05:41:27.698Z,102452.00
2022-12-01T05:43:54.476Z,102453.00
2022-12-01T05:46:21.283Z,102435.00
2022-12-01T05:48:48.076Z,102445.00
2022-12-01T05:51:16.206Z,102443.00
2022-12-01T05:53:43.520Z,102439.00
2022-12-01T05:56:10.436Z,102440.00
2022-12-01T05:58:37.193Z,102437.00
2022-12-01T06:01:04.468Z,102434.00
2022-12-01T06:03:31.227Z,102436.00
2022-12-01T06:05:57.959Z,102434.00
2022-12-01T06:08:24.784Z,102440.00
2022-12-01T06:10:51.530Z,102446.00
2022-12-01T06:13:18.394Z,102446.00
2022-12-01T06:15:45.173Z,102439.00
2022-12-01T06:18:11.936Z,102444.00
2022-12-01T06:20:38.670Z,102452.00
2022-12-01T06:23:05.449Z,102447.00
2022-12-01T06:25:32.205Z,102459.00
2022-12-01T06:27:59.208Z,102444.00
2022-12-01T06:30:26.503Z,102457.00
2022-12-01T06:32:53.277Z,102448.00
2022-12-01T06:35:20.422Z,102462.00
2022-12-01T06:37:48.029Z,102456.00
2022-12-01T06:40:14.810Z,102461.00
2022-12-01T06:42:41.565Z,102465.00
2022-12-01T06:45:09.004Z,102466.00
2022-12-01T06:47:35.861Z,102474.00
2022-12-01T06:50:03.459Z,102465.00
2022-12-01T06:52:30.253Z,102474.00
2022-12-01T06:54:56.991Z,102480.00
2022-12-01T06:57:23.936Z,102476.00
2022-12-01T06:59:51.461Z,102477.00
2022-12-01T07:02:18.669Z,102483.00
2022-12-01T07:04:45.462Z,102492.00
2022-12-01T07:07:12.708Z,102500.00
2022-12-01T07:09:39.570Z,102503.00
2022-12-01T07:12:06.816Z,102505.00
2022-12-01T07:14:33.916Z,102496.00
2022-12-01T07:17:01.053Z,102503.00
2022-12-01T07:19:27.813Z,102503.00
2022-12-01T07:21:54.572Z,102498.00
2022-12-01T07:24:21.319Z,102489.00
2022-12-01T07:26:48.264Z,102491.00
2022-12-01T07:29:15.215Z,102482.00
2022-12-01T07:31:41.948Z,102491.00
2022-12-01T07:34:13.766Z,102497.00
2022-12-01T07:36:40.575Z,102495.00
2022-12-01T07:39:08.634Z,102492.00
2022-12-01T07:41:35.736Z,102494.00
2022-12-01T07:44:02.611Z,102495.00
2022-12-01T07:46:29.475Z,102493.00
2022-12-01T07:48:56.680Z,102500.00
2022-12-01T07:51:24.844Z,102508.00
2022-12-01T07:53:52.906Z,102505.00
2022-12-01T07:56:20.887Z,102503.00
2022-12-01T07:58:47.753Z,102496.00
2022-12-01T08:01:19.683Z,102516.00
2022-12-01T08:03:51.435Z,102511.00
2022-12-01T08:06:18.934Z,102508.00
2022-12-01T08:08:46.195Z,102498.00
2022-12-01T08:11:15.966Z,102512.00
2022-12-01T08:13:42.974Z,102517.00
2022-12-01T08:16:12.348Z,102528.00
2022-12-01T08:18:40.181Z,102520.00
2022-12-01T08:21:08.545Z,102531.00
2022-12-01T08:23:35.333Z,102524.00
2022-12-01T08:26:07.043Z,102535.00
2022-12-01T08:28:36.326Z,102539.00
2022-12-01T08:31:18.789Z,102541.00
2022-12-01T08:33:46.995Z,102538.00
2022-12-01T08:36:14.118Z,102545.00
2022-12-01T08:38:43.569Z,102544.00
2022-12-01T08:41:10.837Z,102540.00
2022-12-01T08:46:34.729Z,102555.00
2022-12-01T08:49:02.984Z,102555.00
2022-12-01T08:51:30.158Z,102560.00
2022-12-01T08:53:57.984Z,102563.00
2022-12-01T08:56:36.492Z,102561.00
2022-12-01T08:59:04.145Z,102556.00
2022-12-01T09:01:32.594Z,102561.00
2022-12-01T09:04:08.502Z,102567.00
2022-12-01T09:06:44.778Z,102558.00
2022-12-01T09:09:14.871Z,102565.00
2022-12-01T09:11:43.715Z,102564.00
2022-12-01T09:14:11.967Z,102573.00
2022-12-01T09:16:39.414Z,102562.00
2022-12-01T09:19:06.273Z,102563.00
2022-12-01T09:21:34.797Z,102566.00
2022-12-01T09:24:02.250Z,102570.00
2022-12-01T09:26:29.234Z,102556.00
2022-12-01T09:29:04.365Z,102567.00
2022-12-01T09:31:31.328Z,102569.00
2022-12-01T09:34:00.458Z,102566.00
2022-12-01T09:36:28.098Z,102571.00
2022-12-01T09:38:54.854Z,102573.00
2022-12-01T09:41:25.929Z,102562.00
2022-12-01T09:44:21.811Z,102567.00
2022-12-01T09:46:52.302Z,102556.00
2022-12-01T09:49:25.836Z,102570.00
2022-12-01T09:51:53.783Z,102551.00
2022-12-01T09:54:20.661Z,102558.00
2022-12-01T09:56:50.623Z,102557.00
2022-12-01T09:59:32.836Z,102569.00
2022-12-01T10:02:02.492Z,102556.00
2022-12-01T10:04:36.653Z,102565.00
2022-12-01T10:07:10.307Z,102566.00
2022-12-01T10:09:43.797Z,102564.00
2022-12-01T10:12:23.690Z,102570.00
2022-12-01T10:14:50.584Z,102552.00
2022-12-01T10:17:36.992Z,102565.00
2022-12-01T10:20:28.631Z,102566.00
2022-12-01T10:23:10.259Z,102569.00
2022-12-01T10:25:59.476Z,102562.00
2022-12-01T10:28:58.543Z,102563.00
2022-12-01T10:31:29.089Z,102545.00
2022-12-01T10:34:12.073Z,102568.00
2022-12-01T10:36:38.872Z,102567.00
2022-12-01T10:39:09.354Z,102563.00
2022-12-01T10:41:37.631Z,102547.00
2022-12-01T10:44:05.763Z,102556.00
2022-12-01T10:46:46.827Z,102556.00
2022-12-01T10:49:15.507Z,102549.00
2022-12-01T10:51:48.319Z,102548.00
2022-12-01T10:54:15.172Z,102552.00
2022-12-01T10:56:43.798Z,102557.00
2022-12-01T10:59:26.736Z,102550.00
2022-12-01T11:01:54.234Z,102551.00
2022-12-01T11:04:45.413Z,102547.00
2022-12-01T11:07:24.742Z,102562.00
2022-12-01T11:10:04.159Z,102554.00
2022-12-01T11:12:31.561Z,102556.00
2022-12-01T11:14:58.520Z,102556.00
2022-12-01T11:17:30.667Z,102548.00
2022-12-01T11:19:57.571Z,102554.00
2022-12-01T11:22:30.945Z,102539.00
2022-12-01T11:25:05.462Z,102547.00
2022-12-01T11:27:44.480Z,102544.00
2022-12-01T11:30:23.082Z,102545.00
2022-12-01T11:32:56.581Z,102544.00
2022-12-01T11:35:26.104Z,102549.00
2022-12-01T11:38:27.673Z,102553.00
2022-12-01T11:40:49.939Z,102541.00
2022-12-01T11:43:37.052Z,102536.00
2022-12-01T11:46:06.616Z,102537.00
2022-12-01T11:48:36.214Z,102549.00
2022-12-01T11:51:11.850Z,102553.00
2022-12-01T11:53:42.944Z,102558.00
2022-12-01T11:56:31.247Z,102558.00
2022-12-01T11:59:06.423Z,102557.00
2022-12-01T12:01:39.432Z,102540.00
2022-12-01T12:04:19.440Z,102551.00
2022-12-01T12:07:23.293Z,102545.00
2022-12-01T12:10:23.779Z,102544.00
2022-12-01T12:13:09.293Z,102554.00
2022-12-01T12:16:02.797Z,102568.00
2022-12-01T12:18:52.840Z,102552.00
2022-12-01T12:21:41.583Z,102556.00
2022-12-01T12:24:25.883Z,102564.00
2022-12-01T12:27:09.291Z,102560.00
2022-12-01T12:29:48.712Z,102572.00
2022-12-01T12:32:18.610Z,102570.00
2022-12-01T12:35:00.572Z,102558.00
2022-12-01T12:37:51.450Z,102553.00
2022-12-01T12:40:30.479Z,102562.00
2022-12-01T12:43:33.718Z,102561.00
2022-12-01T12:46:08.577Z,102556.00
2022-12-01T12:49:19.100Z,102552.00
2022-12-01T12:52:26.290Z,102556.00
2022-12-01T12:55:03.932Z,102558.00
2022-12-01T12:57:40.636Z,102568.00
2022-12-01T13:00:19.127Z,102565.00
2022-12-01T13:03:07.396Z,102575.00
2022-12-01T13:06:01.691Z,102563.00
2022-12-01T13:08:40.056Z,102560.00
2022-12-01T13:11:29.223Z,102562.00
2022-12-01T13:14:18.707Z,102561.00
2022-12-01T13:16:48.193Z,102545.00
2022-12-01T13:19:33.842Z,102546.00
2022-12-01T13:22:01.599Z,102553.00
2022-12-01T13:24:30.527Z,102551.00
2022-12-01T13:27:19.264Z,102549.00
2022-12-01T13:29:52.454Z,102563.00
2022-12-01T13:32:38.104Z,102542.00
2022-12-01T13:35:17.736Z,102545.00
2022-12-01T13:37:44.555Z,102546.00
2022-12-01T13:40:17.507Z,102541.00
2022-12-01T13:42:51.416Z,102532.00
2022-12-01T13:45:19.521Z,102545.00
2022-12-01T13:47:54.449Z,102534.00
2022-12-01T13:50:45.749Z,102534.00
2022-12-01T13:53:51.342Z,102525.00
2022-12-01T13:56:18.086Z,102539.00
2022-12-01T13:58:47.973Z,102523.00
2022-12-01T14:01:21.234Z,102513.00
2022-12-01T14:04:16.227Z,102516.00
2022-12-01T14:06:49.531Z,102520.00
2022-12-01T14:09:31.873Z,102504.00
2022-12-01T14:12:01.201Z,102508.00
2022-12-01T14:14:32.946Z,102510.00
2022-12-01T14:17:02.399Z,102509.00
2022-12-01T14:19:48.162Z,102513.00
2022-12-01T14:22:41.924Z,102513.00
2022-12-01T14:25:20.821Z,102502.00
2022-12-01T14:27:51.956Z,102505.00
2022-12-01T14:30:46.787Z,102503.00
2022-12-01T14:33:52.749Z,102512.00
2022-12-01T14:36:48.544Z,102509.00
2022-12-01T14:39:24.711Z,102508.00
2022-12-01T14:42:02.375Z,102501.00
2022-12-01T14:44:35.413Z,102497.00
2022-12-01T14:47:11.256Z,102501.00
2022-12-01T14:49:55.512Z,102497.00
2022-12-01T14:52:28.410Z,102489.00
2022-12-01T14:54:58.580Z,102490.00
2022-12-01T14:57:31.916Z,102493.00
2022-12-01T15:00:13.027Z,102493.00
2022-12-01T15:02:47.387Z,102491.00
2022-12-01T15:05:19.269Z,102500.00
2022-12-01T15:07:48.500Z,102492.00
2022-12-01T15:10:21.402Z,102500.00
2022-12-01T15:12:49.167Z,102496.00
2022-12-01T15:15:24.919Z,102489.00
2022-12-01T15:17:55.424Z,102490.00
2022-12-01T15:20:47.581Z,102492.00
2022-12-01T15:23:16.105Z,102493.00
2022-12-01T15:25:44.997Z,102495.00
2022-12-01T15:28:20.498Z,102499.00
2022-12-01T15:30:50.560Z,102489.00
2022-12-01T15:33:30.648Z,102493.00
2022-12-01T15:36:00.929Z,102491.00
2022-12-01T15:38:36.117Z,102504.00
2022-12-01T15:43:56.673Z,102500.00
2022-12-01T15:46:32.031Z,102492.00
2022-12-01T15:49:14.652Z,102498.00
2022-12-01T15:51:41.454Z,102497.00
2022-12-01T15:54:17.545Z,102505.00
2022-12-01T15:56:44.538Z,102503.00
2022-12-01T15:59:14.447Z,102516.00
2022-12-01T16:01:43.485Z,102504.00
2022-12-01T16:04:22.435Z,102509.00
2022-12-01T16:07:09.914Z,102508.00
2022-12-01T16:09:38.526Z,102515.00
2022-12-01T16:12:28.655Z,102497.00
2022-12-01T16:15:07.049Z,102506.00
2022-12-01T16:17:45.151Z,102504.00
2022-12-01T16:20:42.300Z,102518.00
2022-12-01T16:23:20.582Z,102500.00
2022-12-01T16:25:48.508Z,102510.00
2022-12-01T16:28:24.688Z,102508.00
2022-12-01T16:30:52.804Z,102495.00
2022-12-01T16:33:22.460Z,102500.00
2022-12-01T16:35:49.885Z,102505.00
2022-12-01T16:38:22.752Z,102503.00
2022-12-01T16:40:55.983Z,102511.00
2022-12-01T17:28:39.502Z,102495.00
2022-12-01T17:31:07.681Z,102511.00
2022-12-01T17:33:35.900Z,102499.00
2022-12-01T17:36:05.583Z,102509.00
2022-12-01T17:38:39.316Z,102511.00
2022-12-01T17:41:25.488Z,102506.00
2022-12-01T17:43:52.339Z,102504.00
2022-12-01T17:46:19.206Z,102497.00
2022-12-01T17:48:46.674Z,102507.00
2022-12-01T17:51:14.606Z,102500.00
2022-12-01T17:53:41.359Z,102500.00
2022-12-01T17:56:09.732Z,102510.00
2022-12-01T17:58:36.832Z,102499.00
2022-12-01T18:01:04.172Z,102511.00
2022-12-01T18:03:31.505Z,102512.00
2022-12-01T18:05:59.556Z,102502.00
2022-12-01T18:08:27.808Z,102503.00
2022-12-01T18:10:54.723Z,102513.00
2022-12-01T18:13:22.567Z,102516.00
2022-12-01T18:15:49.361Z,102507.00
2022-12-01T18:18:16.167Z,102508.00
2022-12-01T18:20:43.524Z,102507.00
2022-12-01T18:23:11.624Z,102508.00
2022-12-01T18:25:39.247Z,102515.00
2022-12-01T18:28:06.364Z,102510.00
2022-12-01T18:30:33.937Z,102514.00
2022-12-01T18:33:01.234Z,102522.00
2022-12-01T18:35:31.788Z,102511.00
2022-12-01T18:37:58.973Z,102518.00
2022-12-01T18:40:25.986Z,102515.00
2022-12-01T18:42:52.752Z,102524.00
2022-12-01T18:45:21.267Z,102513.00
2022-12-01T18:47:48.348Z,102503.00
2022-12-01T18:50:15.123Z,102520.00
2022-12-01T18:52:41.897Z,102519.00
2022-12-01T18:55:09.026Z,102515.00
2022-12-01T18:57:35.822Z,102510.00
2022-12-01T19:00:06.037Z,102513.00
2022-12-01T19:02:32.886Z,102519.00
2022-12-01T19:04:59.740Z,102517.00
2022-12-01T19:07:29.794Z,102505.00
2022-12-01T19:09:56.972Z,102517.00
2022-12-01T19:12:24.087Z,102516.00
2022-12-01T19:14:52.951Z,102519.00
2022-12-01T19:17:21.043Z,102523.00
2022-12-01T19:19:47.774Z,102520.00
2022-12-01T19:22:14.725Z,102520.00
2022-12-01T19:24:44.775Z,102525.00
2022-12-01T19:27:13.976Z,102519.00
2022-12-01T19:29:40.703Z,102523.00
2022-12-01T19:32:07.587Z,102521.00
2022-12-01T19:34:34.555Z,102530.00
2022-12-01T19:37:01.371Z,102529.00
2022-12-01T19:39:28.141Z,102535.00
2022-12-01T19:41:57.042Z,102521.00
2022-12-01T19:44:23.765Z,102533.00
2022-12-01T19:46:50.536Z,102536.00
2022-12-01T19:49:17.284Z,102544.00
2022-12-01T19:51:44.190Z,102533.00
2022-12-01T19:54:15.055Z,102532.00
2022-12-01T19:56:42.043Z,102534.00
2022-12-01T19:59:11.357Z,102545.00
2022-12-01T20:01:38.236Z,102538.00
2022-12-01T20:04:05.438Z,102535.00
2022-12-01T20:06:33.844Z,102544.00
2022-12-01T20:09:02.633Z,102537.00
2022-12-01T20:11:31.520Z,102549.00
2022-12-01T20:13:58.756Z,102532.00
2022-12-01T20:16:27.522Z,102532.00
2022-12-01T20:18:54.629Z,102534.00
2022-12-01T20:21:26.737Z,102536.00
2022-12-01T20:23:58.301Z,102530.00
2022-12-01T20:26:51.258Z,102526.00
2022-12-01T20:29:20.595Z,102542.00
2022-12-01T20:31:48.770Z,102520.00
2022-12-01T20:34:19.069Z,102530.00
2022-12-01T22:21:07.726Z,102514.00
2022-12-01T22:23:35.294Z,102515.00
2022-12-01T22:26:02.046Z,102514.00
2022-12-01T22:28:28.912Z,102524.00
2022-12-01T22:30:55.714Z,102528.00
2022-12-01T22:33:27.523Z,102527.00
2022-12-01T22:35:54.640Z,102520.00
2022-12-01T22:38:27.269Z,102522.00
2022-12-01T22:40:56.885Z,102522.00
2022-12-01T22:43:26.883Z,102525.00
2022-12-01T22:45:56.534Z,102528.00
2022-12-01T22:48:31.632Z,102540.00
2022-12-01T22:51:23.118Z,102528.00
2022-12-01T22:53:51.832Z,102531.00
2022-12-01T22:56:31.892Z,102541.00
2022-12-01T22:58:58.764Z,102540.00
2022-12-01T23:01:33.676Z,102544.00
2022-12-01T23:04:26.747Z,102544.00
2022-12-01T23:07:01.273Z,102553.00
2022-12-01T23:09:42.434Z,102553.00
2022-12-01T23:12:12.471Z,102544.00
2022-12-01T23:14:44.827Z,102557.00
2022-12-01T23:17:23.879Z,102546.00
2022-12-01T23:19:52.312Z,102545.00
2022-12-01T23:22:19.593Z,102534.00
2022-12-01T23:24:46.388Z,102538.00
2022-12-01T23:27:13.972Z,102530.00
2022-12-01T23:29:40.732Z,102520.00
2022-12-01T23:32:07.525Z,102526.00
2022-12-01T23:34:34.675Z,102519.00
2022-12-01T23:37:01.968Z,102514.00
2022-12-01T23:39:32.201Z,102519.00
2022-12-01T23:41:59.109Z,102513.00
2022-12-01T23:44:45.416Z,102520.00
2022-12-01T23:47:25.513Z,102515.00
2022-12-01T23:49:58.975Z,102508.00
2022-12-01T23:52:32.160Z,102493.00
2022-12-01T23:54:59.442Z,102486.00
2022-12-01T23:57:26.286Z,102495.00
2022-12-01T23:59:57.918Z,102491.00
